sensor_id;sensor_type;location;lat;lon;timestamp;temperature;humidity
11922;DHT22;6021;51.182;3.160;2023-07-16T00:00:16;17.50;1.00
11922;DHT22;6021;51.182;3.160;2023-07-16T00:02:46;17.60;1.00
11922;DHT22;6021;51.182;3.160;2023-07-16T00:05:14;17.70;1.00
11922;DHT22;6021;51.182;3.160;2023-07-16T00:07:43;17.50;1.00
11922;DHT22;6021;51.182;3.160;2023-07-16T00:10:11;17.50;1.00
11922;DHT22;6021;51.182;3.160;2023-07-16T00:12:40;17.60;1.00
11922;DHT22;6021;51.182;3.160;2023-07-16T00:15:08;17.50;1.00
11922;DHT22;6021;51.182;3.160;2023-07-16T00:17:37;17.50;1.00
11922;DHT22;6021;51.182;3.160;2023-07-16T00:20:06;17.60;1.00
11922;DHT22;6021;51.182;3.160;2023-07-16T00:22:34;17.60;1.00
11922;DHT22;6021;51.182;3.160;2023-07-16T00:25:03;17.60;1.00
11922;DHT22;6021;51.182;3.160;2023-07-16T00:27:31;17.70;1.00
11922;DHT22;6021;51.182;3.160;2023-07-16T00:29:59;17.60;1.00
11922;DHT22;6021;51.182;3.160;2023-07-16T00:32:28;17.50;1.00
11922;DHT22;6021;51.182;3.160;2023-07-16T00:34:56;17.50;1.00
11922;DHT22;6021;51.182;3.160;2023-07-16T00:37:25;17.50;1.00
11922;DHT22;6021;51.182;3.160;2023-07-16T00:39:53;17.40;1.00
11922;DHT22;6021;51.182;3.160;2023-07-16T00:42:21;17.40;1.00
11922;DHT22;6021;51.182;3.160;2023-07-16T00:44:50;17.40;1.00
11922;DHT22;6021;51.182;3.160;2023-07-16T00:47:18;17.50;1.00
11922;DHT22;6021;51.182;3.160;2023-07-16T00:49:47;17.40;1.00
11922;DHT22;6021;51.182;3.160;2023-07-16T00:52:18;17.70;1.00
11922;DHT22;6021;51.182;3.160;2023-07-16T00:54:46;17.40;1.00
11922;DHT22;6021;51.182;3.160;2023-07-16T00:57:15;17.30;1.00
11922;DHT22;6021;51.182;3.160;2023-07-16T00:59:43;17.20;1.00
11922;DHT22;6021;51.182;3.160;2023-07-16T01:02:12;17.30;1.00
11922;DHT22;6021;51.182;3.160;2023-07-16T01:04:40;17.40;1.00
11922;DHT22;6021;51.182;3.160;2023-07-16T01:07:11;17.30;1.00
11922;DHT22;6021;51.182;3.160;2023-07-16T01:09:41;17.30;3.30
11922;DHT22;6021;51.182;3.160;2023-07-16T01:12:10;17.20;13.40
11922;DHT22;6021;51.182;3.160;2023-07-16T01:14:40;17.20;20.50
11922;DHT22;6021;51.182;3.160;2023-07-16T01:17:08;17.30;19.90
11922;DHT22;6021;51.182;3.160;2023-07-16T01:19:36;17.20;22.50
11922;DHT22;6021;51.182;3.160;2023-07-16T01:22:27;17.10;31.00
11922;DHT22;6021;51.182;3.160;2023-07-16T01:25:20;17.10;69.10
11922;DHT22;6021;51.182;3.160;2023-07-16T01:30:37;17.10;79.30
11922;DHT22;6021;51.182;3.160;2023-07-16T01:33:07;17.00;92.00
11922;DHT22;6021;51.182;3.160;2023-07-16T01:35:37;17.00;95.30
11922;DHT22;6021;51.182;3.160;2023-07-16T01:38:08;17.00;91.60
11922;DHT22;6021;51.182;3.160;2023-07-16T01:40:37;17.10;79.10
11922;DHT22;6021;51.182;3.160;2023-07-16T01:43:05;17.00;66.50
11922;DHT22;6021;51.182;3.160;2023-07-16T01:45:34;17.10;50.10
11922;DHT22;6021;51.182;3.160;2023-07-16T01:48:14;17.00;54.40
11922;DHT22;6021;51.182;3.160;2023-07-16T01:50:43;17.00;52.10
11922;DHT22;6021;51.182;3.160;2023-07-16T01:53:11;17.00;36.90
11922;DHT22;6021;51.182;3.160;2023-07-16T01:55:40;16.90;35.40
11922;DHT22;6021;51.182;3.160;2023-07-16T01:58:08;16.90;40.90
11922;DHT22;6021;51.182;3.160;2023-07-16T02:00:37;16.80;39.10
11922;DHT22;6021;51.182;3.160;2023-07-16T02:03:05;16.80;41.40
11922;DHT22;6021;51.182;3.160;2023-07-16T02:05:34;16.70;48.60
11922;DHT22;6021;51.182;3.160;2023-07-16T02:08:03;16.80;54.80
11922;DHT22;6021;51.182;3.160;2023-07-16T02:10:31;16.80;42.60
11922;DHT22;6021;51.182;3.160;2023-07-16T02:13:00;16.80;28.50
11922;DHT22;6021;51.182;3.160;2023-07-16T02:15:28;16.80;27.00
11922;DHT22;6021;51.182;3.160;2023-07-16T02:17:57;16.90;17.80
11922;DHT22;6021;51.182;3.160;2023-07-16T02:20:26;16.90;15.20
11922;DHT22;6021;51.182;3.160;2023-07-16T02:22:54;16.90;14.00
11922;DHT22;6021;51.182;3.160;2023-07-16T02:25:42;16.80;12.30
11922;DHT22;6021;51.182;3.160;2023-07-16T02:28:10;16.90;2.20
11922;DHT22;6021;51.182;3.160;2023-07-16T02:30:41;16.90;4.40
11922;DHT22;6021;51.182;3.160;2023-07-16T02:33:09;16.70;5.10
11922;DHT22;6021;51.182;3.160;2023-07-16T02:35:37;16.80;9.60
11922;DHT22;6021;51.182;3.160;2023-07-16T02:38:06;16.80;8.20
11922;DHT22;6021;51.182;3.160;2023-07-16T02:40:34;16.80;13.40
11922;DHT22;6021;51.182;3.160;2023-07-16T02:43:03;16.70;9.90
11922;DHT22;6021;51.182;3.160;2023-07-16T02:45:31;16.60;14.10
11922;DHT22;6021;51.182;3.160;2023-07-16T02:47:59;16.70;18.80
11922;DHT22;6021;51.182;3.160;2023-07-16T02:50:28;16.70;14.70
11922;DHT22;6021;51.182;3.160;2023-07-16T02:52:56;16.60;19.30
11922;DHT22;6021;51.182;3.160;2023-07-16T02:55:24;16.60;7.10
11922;DHT22;6021;51.182;3.160;2023-07-16T02:57:53;16.70;1.00
11922;DHT22;6021;51.182;3.160;2023-07-16T03:00:21;16.60;1.00
11922;DHT22;6021;51.182;3.160;2023-07-16T03:02:50;16.60;1.00
11922;DHT22;6021;51.182;3.160;2023-07-16T03:05:18;16.60;1.00
11922;DHT22;6021;51.182;3.160;2023-07-16T03:07:47;16.70;1.00
11922;DHT22;6021;51.182;3.160;2023-07-16T03:10:15;16.70;1.00
11922;DHT22;6021;51.182;3.160;2023-07-16T03:12:43;16.70;1.00
11922;DHT22;6021;51.182;3.160;2023-07-16T03:15:12;16.60;1.00
11922;DHT22;6021;51.182;3.160;2023-07-16T03:17:40;16.70;1.00
11922;DHT22;6021;51.182;3.160;2023-07-16T03:20:09;16.80;1.00
11922;DHT22;6021;51.182;3.160;2023-07-16T03:22:37;16.80;1.00
11922;DHT22;6021;51.182;3.160;2023-07-16T03:25:06;16.80;1.00
11922;DHT22;6021;51.182;3.160;2023-07-16T03:27:35;16.60;1.00
11922;DHT22;6021;51.182;3.160;2023-07-16T03:30:03;16.70;1.00
11922;DHT22;6021;51.182;3.160;2023-07-16T03:32:32;16.70;1.00
11922;DHT22;6021;51.182;3.160;2023-07-16T03:35:00;16.70;1.00
11922;DHT22;6021;51.182;3.160;2023-07-16T03:37:28;16.60;1.00
11922;DHT22;6021;51.182;3.160;2023-07-16T03:40:11;16.60;1.00
11922;DHT22;6021;51.182;3.160;2023-07-16T03:42:28;16.70;1.00
11922;DHT22;6021;51.182;3.160;2023-07-16T03:44:57;16.70;1.00
11922;DHT22;6021;51.182;3.160;2023-07-16T03:47:25;16.80;1.00
11922;DHT22;6021;51.182;3.160;2023-07-16T03:49:53;16.70;1.00
11922;DHT22;6021;51.182;3.160;2023-07-16T03:52:22;16.70;1.00
11922;DHT22;6021;51.182;3.160;2023-07-16T03:54:52;16.70;1.00
11922;DHT22;6021;51.182;3.160;2023-07-16T03:57:20;16.80;1.00
11922;DHT22;6021;51.182;3.160;2023-07-16T03:59:49;16.70;1.00
11922;DHT22;6021;51.182;3.160;2023-07-16T04:02:17;16.80;1.00
11922;DHT22;6021;51.182;3.160;2023-07-16T04:04:45;16.80;1.00
11922;DHT22;6021;51.182;3.160;2023-07-16T04:07:14;16.80;1.00
11922;DHT22;6021;51.182;3.160;2023-07-16T04:09:42;16.80;1.00
11922;DHT22;6021;51.182;3.160;2023-07-16T04:12:11;16.80;1.00
11922;DHT22;6021;51.182;3.160;2023-07-16T04:14:39;16.80;1.00
11922;DHT22;6021;51.182;3.160;2023-07-16T04:17:07;16.90;1.00
11922;DHT22;6021;51.182;3.160;2023-07-16T04:19:36;16.90;1.00
11922;DHT22;6021;51.182;3.160;2023-07-16T04:22:04;16.90;1.00
11922;DHT22;6021;51.182;3.160;2023-07-16T04:24:33;16.90;1.00
11922;DHT22;6021;51.182;3.160;2023-07-16T04:27:01;16.80;1.00
11922;DHT22;6021;51.182;3.160;2023-07-16T04:29:31;16.80;1.00
11922;DHT22;6021;51.182;3.160;2023-07-16T04:31:59;16.70;1.00
11922;DHT22;6021;51.182;3.160;2023-07-16T04:34:28;16.70;1.00
11922;DHT22;6021;51.182;3.160;2023-07-16T04:36:56;16.70;1.00
11922;DHT22;6021;51.182;3.160;2023-07-16T04:39:24;16.50;1.00
11922;DHT22;6021;51.182;3.160;2023-07-16T04:41:53;16.40;1.00
11922;DHT22;6021;51.182;3.160;2023-07-16T04:44:21;16.50;1.10
11922;DHT22;6021;51.182;3.160;2023-07-16T04:46:49;16.50;1.50
11922;DHT22;6021;51.182;3.160;2023-07-16T04:49:18;16.60;3.90
11922;DHT22;6021;51.182;3.160;2023-07-16T04:51:46;16.60;1.00
11922;DHT22;6021;51.182;3.160;2023-07-16T04:54:14;16.50;5.30
11922;DHT22;6021;51.182;3.160;2023-07-16T04:56:43;16.50;1.00
11922;DHT22;6021;51.182;3.160;2023-07-16T04:59:11;16.60;1.00
11922;DHT22;6021;51.182;3.160;2023-07-16T05:01:42;16.60;1.00
11922;DHT22;6021;51.182;3.160;2023-07-16T05:04:11;16.60;1.00
11922;DHT22;6021;51.182;3.160;2023-07-16T05:06:39;16.60;1.00
11922;DHT22;6021;51.182;3.160;2023-07-16T05:09:08;16.50;1.00
11922;DHT22;6021;51.182;3.160;2023-07-16T05:11:36;16.50;1.00
11922;DHT22;6021;51.182;3.160;2023-07-16T05:14:05;16.50;1.00
11922;DHT22;6021;51.182;3.160;2023-07-16T05:16:33;16.60;1.00
11922;DHT22;6021;51.182;3.160;2023-07-16T05:19:02;16.50;1.00
11922;DHT22;6021;51.182;3.160;2023-07-16T05:21:30;16.70;1.00
11922;DHT22;6021;51.182;3.160;2023-07-16T05:23:59;16.70;1.00
11922;DHT22;6021;51.182;3.160;2023-07-16T05:26:27;16.80;1.00
11922;DHT22;6021;51.182;3.160;2023-07-16T05:28:55;16.80;1.00
11922;DHT22;6021;51.182;3.160;2023-07-16T05:31:24;16.80;1.00
11922;DHT22;6021;51.182;3.160;2023-07-16T05:33:52;16.80;1.00
11922;DHT22;6021;51.182;3.160;2023-07-16T05:36:21;16.80;1.00
11922;DHT22;6021;51.182;3.160;2023-07-16T05:38:49;16.90;1.00
11922;DHT22;6021;51.182;3.160;2023-07-16T05:41:17;16.90;1.00
11922;DHT22;6021;51.182;3.160;2023-07-16T05:43:46;16.90;1.00
11922;DHT22;6021;51.182;3.160;2023-07-16T05:46:14;16.90;1.00
11922;DHT22;6021;51.182;3.160;2023-07-16T05:48:42;16.90;1.00
11922;DHT22;6021;51.182;3.160;2023-07-16T05:51:11;16.90;1.00
11922;DHT22;6021;51.182;3.160;2023-07-16T05:53:39;17.00;1.00
11922;DHT22;6021;51.182;3.160;2023-07-16T05:56:08;17.00;1.00
11922;DHT22;6021;51.182;3.160;2023-07-16T05:58:36;17.10;1.00
11922;DHT22;6021;51.182;3.160;2023-07-16T06:01:04;17.10;1.00
11922;DHT22;6021;51.182;3.160;2023-07-16T06:03:33;17.10;1.00
11922;DHT22;6021;51.182;3.160;2023-07-16T06:06:01;17.20;1.00
11922;DHT22;6021;51.182;3.160;2023-07-16T06:08:29;17.00;1.00
11922;DHT22;6021;51.182;3.160;2023-07-16T06:10:58;17.20;1.00
11922;DHT22;6021;51.182;3.160;2023-07-16T06:13:26;17.20;1.00
11922;DHT22;6021;51.182;3.160;2023-07-16T06:15:55;17.30;1.00
11922;DHT22;6021;51.182;3.160;2023-07-16T06:18:23;17.30;1.00
11922;DHT22;6021;51.182;3.160;2023-07-16T06:20:52;17.20;1.00
11922;DHT22;6021;51.182;3.160;2023-07-16T06:23:23;17.20;1.00
11922;DHT22;6021;51.182;3.160;2023-07-16T06:25:55;17.30;1.00
11922;DHT22;6021;51.182;3.160;2023-07-16T06:28:23;17.20;1.00
11922;DHT22;6021;51.182;3.160;2023-07-16T06:30:52;17.20;1.00
11922;DHT22;6021;51.182;3.160;2023-07-16T06:33:20;17.30;1.00
11922;DHT22;6021;51.182;3.160;2023-07-16T06:35:49;17.30;1.00
11922;DHT22;6021;51.182;3.160;2023-07-16T06:38:17;17.40;1.00
11922;DHT22;6021;51.182;3.160;2023-07-16T06:40:49;17.40;1.00
11922;DHT22;6021;51.182;3.160;2023-07-16T06:43:18;17.40;1.00
11922;DHT22;6021;51.182;3.160;2023-07-16T06:45:48;17.40;1.00
11922;DHT22;6021;51.182;3.160;2023-07-16T06:48:17;17.40;1.00
11922;DHT22;6021;51.182;3.160;2023-07-16T06:50:45;17.30;1.00
11922;DHT22;6021;51.182;3.160;2023-07-16T06:53:14;17.30;1.00
11922;DHT22;6021;51.182;3.160;2023-07-16T06:55:42;17.30;1.00
11922;DHT22;6021;51.182;3.160;2023-07-16T06:58:13;17.40;1.00
11922;DHT22;6021;51.182;3.160;2023-07-16T07:00:41;17.30;1.00
11922;DHT22;6021;51.182;3.160;2023-07-16T07:03:10;17.40;1.00
11922;DHT22;6021;51.182;3.160;2023-07-16T07:05:42;17.40;1.00
11922;DHT22;6021;51.182;3.160;2023-07-16T07:08:11;17.30;1.00
11922;DHT22;6021;51.182;3.160;2023-07-16T07:10:39;17.30;1.00
11922;DHT22;6021;51.182;3.160;2023-07-16T07:13:08;17.30;1.00
11922;DHT22;6021;51.182;3.160;2023-07-16T07:15:36;17.30;6.80
11922;DHT22;6021;51.182;3.160;2023-07-16T07:18:04;17.20;8.60
11922;DHT22;6021;51.182;3.160;2023-07-16T07:20:33;17.30;17.10
11922;DHT22;6021;51.182;3.160;2023-07-16T07:23:03;17.30;14.00
11922;DHT22;6021;51.182;3.160;2023-07-16T07:25:32;17.40;7.40
11922;DHT22;6021;51.182;3.160;2023-07-16T07:28:00;17.50;4.80
11922;DHT22;6021;51.182;3.160;2023-07-16T07:30:29;17.60;1.00
11922;DHT22;6021;51.182;3.160;2023-07-16T07:32:57;17.70;3.30
11922;DHT22;6021;51.182;3.160;2023-07-16T07:35:26;17.70;1.00
11922;DHT22;6021;51.182;3.160;2023-07-16T07:37:54;17.70;1.00
11922;DHT22;6021;51.182;3.160;2023-07-16T07:40:22;17.70;1.00
11922;DHT22;6021;51.182;3.160;2023-07-16T07:42:51;17.70;1.00
11922;DHT22;6021;51.182;3.160;2023-07-16T07:45:19;17.80;1.00
11922;DHT22;6021;51.182;3.160;2023-07-16T07:47:48;17.80;1.00
11922;DHT22;6021;51.182;3.160;2023-07-16T07:50:16;17.80;1.00
11922;DHT22;6021;51.182;3.160;2023-07-16T07:52:45;17.90;1.00
11922;DHT22;6021;51.182;3.160;2023-07-16T07:55:13;17.90;1.00
11922;DHT22;6021;51.182;3.160;2023-07-16T07:57:41;17.90;1.00
11922;DHT22;6021;51.182;3.160;2023-07-16T08:00:10;18.00;1.00
11922;DHT22;6021;51.182;3.160;2023-07-16T08:02:39;17.90;1.00
11922;DHT22;6021;51.182;3.160;2023-07-16T08:05:08;18.10;1.00
11922;DHT22;6021;51.182;3.160;2023-07-16T08:07:37;18.00;1.00
11922;DHT22;6021;51.182;3.160;2023-07-16T08:10:05;18.00;1.00
11922;DHT22;6021;51.182;3.160;2023-07-16T08:12:34;18.10;1.70
11922;DHT22;6021;51.182;3.160;2023-07-16T08:15:02;18.10;6.60
11922;DHT22;6021;51.182;3.160;2023-07-16T08:17:31;18.10;3.80
11922;DHT22;6021;51.182;3.160;2023-07-16T08:19:59;18.10;1.00
11922;DHT22;6021;51.182;3.160;2023-07-16T08:22:27;18.00;2.80
11922;DHT22;6021;51.182;3.160;2023-07-16T08:24:56;18.00;1.60
11922;DHT22;6021;51.182;3.160;2023-07-16T08:27:24;17.90;8.40
11922;DHT22;6021;51.182;3.160;2023-07-16T08:29:52;17.90;5.00
11922;DHT22;6021;51.182;3.160;2023-07-16T08:32:21;17.90;1.00
11922;DHT22;6021;51.182;3.160;2023-07-16T08:34:49;17.80;1.00
11922;DHT22;6021;51.182;3.160;2023-07-16T08:37:17;17.90;1.00
11922;DHT22;6021;51.182;3.160;2023-07-16T08:39:46;18.00;1.00
11922;DHT22;6021;51.182;3.160;2023-07-16T08:42:15;17.70;1.00
11922;DHT22;6021;51.182;3.160;2023-07-16T08:44:43;17.80;1.00
11922;DHT22;6021;51.182;3.160;2023-07-16T08:47:11;17.90;1.00
11922;DHT22;6021;51.182;3.160;2023-07-16T08:49:40;17.90;1.00
11922;DHT22;6021;51.182;3.160;2023-07-16T08:52:10;18.10;1.00
11922;DHT22;6021;51.182;3.160;2023-07-16T08:54:38;18.10;1.00
11922;DHT22;6021;51.182;3.160;2023-07-16T08:57:08;18.10;1.00
11922;DHT22;6021;51.182;3.160;2023-07-16T08:59:37;18.30;1.00
11922;DHT22;6021;51.182;3.160;2023-07-16T09:02:06;18.30;1.00
11922;DHT22;6021;51.182;3.160;2023-07-16T09:04:34;18.50;1.00
11922;DHT22;6021;51.182;3.160;2023-07-16T09:07:03;18.50;1.00
11922;DHT22;6021;51.182;3.160;2023-07-16T09:09:32;18.50;1.00
11922;DHT22;6021;51.182;3.160;2023-07-16T09:12:01;18.50;1.00
11922;DHT22;6021;51.182;3.160;2023-07-16T09:14:29;18.50;1.00
11922;DHT22;6021;51.182;3.160;2023-07-16T09:16:58;18.40;1.00
11922;DHT22;6021;51.182;3.160;2023-07-16T09:19:26;18.50;1.00
11922;DHT22;6021;51.182;3.160;2023-07-16T09:21:55;18.50;1.00
11922;DHT22;6021;51.182;3.160;2023-07-16T09:24:23;18.50;1.00
11922;DHT22;6021;51.182;3.160;2023-07-16T09:26:53;18.60;1.00
11922;DHT22;6021;51.182;3.160;2023-07-16T09:29:22;18.60;1.00
11922;DHT22;6021;51.182;3.160;2023-07-16T09:31:57;18.80;1.00
11922;DHT22;6021;51.182;3.160;2023-07-16T09:34:29;18.80;1.00
11922;DHT22;6021;51.182;3.160;2023-07-16T09:36:59;19.00;1.00
11922;DHT22;6021;51.182;3.160;2023-07-16T09:39:27;19.10;1.00
11922;DHT22;6021;51.182;3.160;2023-07-16T09:41:56;19.10;1.00
11922;DHT22;6021;51.182;3.160;2023-07-16T09:44:25;19.10;1.00
11922;DHT22;6021;51.182;3.160;2023-07-16T09:46:54;19.10;1.00
11922;DHT22;6021;51.182;3.160;2023-07-16T09:49:22;19.20;1.00
11922;DHT22;6021;51.182;3.160;2023-07-16T09:51:52;19.20;1.00
11922;DHT22;6021;51.182;3.160;2023-07-16T09:54:24;19.10;1.00
11922;DHT22;6021;51.182;3.160;2023-07-16T09:56:58;19.20;1.00
11922;DHT22;6021;51.182;3.160;2023-07-16T09:59:30;19.40;1.00
11922;DHT22;6021;51.182;3.160;2023-07-16T10:02:00;19.50;1.00
11922;DHT22;6021;51.182;3.160;2023-07-16T10:04:38;19.50;1.00
11922;DHT22;6021;51.182;3.160;2023-07-16T10:07:03;19.40;1.00
11922;DHT22;6021;51.182;3.160;2023-07-16T10:09:37;19.30;1.00
11922;DHT22;6021;51.182;3.160;2023-07-16T10:12:12;19.20;1.00
11922;DHT22;6021;51.182;3.160;2023-07-16T10:14:43;19.20;1.00
11922;DHT22;6021;51.182;3.160;2023-07-16T10:17:19;19.20;1.00
11922;DHT22;6021;51.182;3.160;2023-07-16T10:19:59;19.20;1.00
11922;DHT22;6021;51.182;3.160;2023-07-16T10:25:02;19.20;1.00
11922;DHT22;6021;51.182;3.160;2023-07-16T10:27:32;19.20;1.00
11922;DHT22;6021;51.182;3.160;2023-07-16T10:30:03;19.40;1.00
11922;DHT22;6021;51.182;3.160;2023-07-16T10:32:33;19.60;1.00
11922;DHT22;6021;51.182;3.160;2023-07-16T10:35:03;19.60;1.00
11922;DHT22;6021;51.182;3.160;2023-07-16T10:37:31;19.60;1.00
11922;DHT22;6021;51.182;3.160;2023-07-16T10:40:01;19.40;1.00
11922;DHT22;6021;51.182;3.160;2023-07-16T10:42:32;19.40;1.00
11922;DHT22;6021;51.182;3.160;2023-07-16T10:45:02;19.40;1.00
11922;DHT22;6021;51.182;3.160;2023-07-16T10:47:32;19.40;1.00
11922;DHT22;6021;51.182;3.160;2023-07-16T10:50:03;19.40;1.00
11922;DHT22;6021;51.182;3.160;2023-07-16T10:52:32;19.40;1.00
11922;DHT22;6021;51.182;3.160;2023-07-16T10:55:01;19.40;1.00
11922;DHT22;6021;51.182;3.160;2023-07-16T10:57:30;19.50;1.00
11922;DHT22;6021;51.182;3.160;2023-07-16T10:59:59;19.50;1.00
11922;DHT22;6021;51.182;3.160;2023-07-16T11:02:28;19.50;1.00
11922;DHT22;6021;51.182;3.160;2023-07-16T11:04:56;19.50;1.00
11922;DHT22;6021;51.182;3.160;2023-07-16T11:07:29;19.60;1.00
11922;DHT22;6021;51.182;3.160;2023-07-16T11:09:57;19.70;1.00
11922;DHT22;6021;51.182;3.160;2023-07-16T11:12:25;19.70;1.00
11922;DHT22;6021;51.182;3.160;2023-07-16T11:14:55;19.70;1.00
11922;DHT22;6021;51.182;3.160;2023-07-16T11:17:24;19.70;1.00
11922;DHT22;6021;51.182;3.160;2023-07-16T11:19:54;19.70;1.00
11922;DHT22;6021;51.182;3.160;2023-07-16T11:22:27;19.60;1.00
11922;DHT22;6021;51.182;3.160;2023-07-16T11:24:55;19.70;1.00
11922;DHT22;6021;51.182;3.160;2023-07-16T11:27:26;19.80;1.00
11922;DHT22;6021;51.182;3.160;2023-07-16T11:29:56;19.80;1.00
11922;DHT22;6021;51.182;3.160;2023-07-16T11:32:33;19.90;1.00
11922;DHT22;6021;51.182;3.160;2023-07-16T11:35:03;20.00;1.00
11922;DHT22;6021;51.182;3.160;2023-07-16T11:37:34;20.20;1.00
11922;DHT22;6021;51.182;3.160;2023-07-16T11:40:07;20.50;1.00
11922;DHT22;6021;51.182;3.160;2023-07-16T11:42:38;20.70;1.00
11922;DHT22;6021;51.182;3.160;2023-07-16T11:45:18;20.80;1.00
11922;DHT22;6021;51.182;3.160;2023-07-16T11:47:46;21.00;1.00
11922;DHT22;6021;51.182;3.160;2023-07-16T11:50:15;21.00;1.00
11922;DHT22;6021;51.182;3.160;2023-07-16T11:52:52;21.10;1.00
11922;DHT22;6021;51.182;3.160;2023-07-16T11:55:21;21.00;1.00
11922;DHT22;6021;51.182;3.160;2023-07-16T11:57:49;20.90;1.00
11922;DHT22;6021;51.182;3.160;2023-07-16T12:00:18;21.00;1.00
11922;DHT22;6021;51.182;3.160;2023-07-16T12:02:46;20.80;1.00
11922;DHT22;6021;51.182;3.160;2023-07-16T12:05:18;20.70;1.00
11922;DHT22;6021;51.182;3.160;2023-07-16T12:07:46;20.50;1.00
11922;DHT22;6021;51.182;3.160;2023-07-16T12:10:15;20.60;1.00
11922;DHT22;6021;51.182;3.160;2023-07-16T12:12:44;20.50;1.00
11922;DHT22;6021;51.182;3.160;2023-07-16T12:15:12;20.50;1.00
11922;DHT22;6021;51.182;3.160;2023-07-16T12:17:40;20.40;1.00
11922;DHT22;6021;51.182;3.160;2023-07-16T12:20:09;20.50;1.00
11922;DHT22;6021;51.182;3.160;2023-07-16T12:22:38;20.50;1.00
11922;DHT22;6021;51.182;3.160;2023-07-16T12:25:06;20.50;1.00
11922;DHT22;6021;51.182;3.160;2023-07-16T12:27:35;20.60;1.00
11922;DHT22;6021;51.182;3.160;2023-07-16T12:30:03;20.70;1.00
11922;DHT22;6021;51.182;3.160;2023-07-16T12:32:32;20.70;1.00
11922;DHT22;6021;51.182;3.160;2023-07-16T12:35:00;20.70;1.00
11922;DHT22;6021;51.182;3.160;2023-07-16T12:37:28;20.80;1.00
11922;DHT22;6021;51.182;3.160;2023-07-16T12:39:57;20.80;1.00
11922;DHT22;6021;51.182;3.160;2023-07-16T12:42:25;20.80;1.00
11922;DHT22;6021;51.182;3.160;2023-07-16T12:44:53;20.90;1.00
11922;DHT22;6021;51.182;3.160;2023-07-16T12:47:22;20.90;1.00
11922;DHT22;6021;51.182;3.160;2023-07-16T12:49:50;21.00;1.00
11922;DHT22;6021;51.182;3.160;2023-07-16T12:52:20;21.00;1.00
11922;DHT22;6021;51.182;3.160;2023-07-16T12:54:48;21.00;1.00
11922;DHT22;6021;51.182;3.160;2023-07-16T12:57:17;21.10;1.00
11922;DHT22;6021;51.182;3.160;2023-07-16T12:59:46;21.00;1.00
11922;DHT22;6021;51.182;3.160;2023-07-16T13:02:14;21.00;1.00
11922;DHT22;6021;51.182;3.160;2023-07-16T13:04:42;21.00;1.00
11922;DHT22;6021;51.182;3.160;2023-07-16T13:07:11;21.00;1.00
11922;DHT22;6021;51.182;3.160;2023-07-16T13:09:40;21.00;1.00
11922;DHT22;6021;51.182;3.160;2023-07-16T13:12:08;21.00;1.00
11922;DHT22;6021;51.182;3.160;2023-07-16T13:14:37;21.10;1.00
11922;DHT22;6021;51.182;3.160;2023-07-16T13:17:05;21.10;1.00
11922;DHT22;6021;51.182;3.160;2023-07-16T13:19:34;21.20;1.00
11922;DHT22;6021;51.182;3.160;2023-07-16T13:22:02;21.30;1.00
11922;DHT22;6021;51.182;3.160;2023-07-16T13:24:30;21.40;1.00
11922;DHT22;6021;51.182;3.160;2023-07-16T13:26:59;21.40;1.00
11922;DHT22;6021;51.182;3.160;2023-07-16T13:29:27;21.40;1.00
11922;DHT22;6021;51.182;3.160;2023-07-16T13:31:56;21.50;1.00
11922;DHT22;6021;51.182;3.160;2023-07-16T13:34:26;21.50;1.00
11922;DHT22;6021;51.182;3.160;2023-07-16T13:36:54;21.40;1.00
11922;DHT22;6021;51.182;3.160;2023-07-16T13:39:24;21.40;1.00
11922;DHT22;6021;51.182;3.160;2023-07-16T13:41:52;21.50;1.00
11922;DHT22;6021;51.182;3.160;2023-07-16T13:44:21;21.50;1.00
11922;DHT22;6021;51.182;3.160;2023-07-16T13:46:49;21.50;1.00
11922;DHT22;6021;51.182;3.160;2023-07-16T13:49:18;21.30;1.00
11922;DHT22;6021;51.182;3.160;2023-07-16T13:51:46;21.40;1.00
11922;DHT22;6021;51.182;3.160;2023-07-16T13:54:15;21.40;1.00
11922;DHT22;6021;51.182;3.160;2023-07-16T13:56:43;21.40;1.00
11922;DHT22;6021;51.182;3.160;2023-07-16T13:59:11;21.50;1.00
11922;DHT22;6021;51.182;3.160;2023-07-16T14:01:40;21.50;1.00
11922;DHT22;6021;51.182;3.160;2023-07-16T14:04:08;21.60;1.00
11922;DHT22;6021;51.182;3.160;2023-07-16T14:06:37;21.60;1.00
11922;DHT22;6021;51.182;3.160;2023-07-16T14:09:05;21.60;1.00
11922;DHT22;6021;51.182;3.160;2023-07-16T14:11:39;21.40;1.00
11922;DHT22;6021;51.182;3.160;2023-07-16T14:14:03;21.40;1.00
11922;DHT22;6021;51.182;3.160;2023-07-16T14:16:31;21.50;1.00
11922;DHT22;6021;51.182;3.160;2023-07-16T14:19:00;21.50;1.00
11922;DHT22;6021;51.182;3.160;2023-07-16T14:21:28;21.50;1.00
11922;DHT22;6021;51.182;3.160;2023-07-16T14:23:58;21.50;1.00
11922;DHT22;6021;51.182;3.160;2023-07-16T14:26:27;21.60;1.00
11922;DHT22;6021;51.182;3.160;2023-07-16T14:28:59;21.50;1.00
11922;DHT22;6021;51.182;3.160;2023-07-16T14:31:27;21.50;1.00
11922;DHT22;6021;51.182;3.160;2023-07-16T14:33:55;21.50;1.00
11922;DHT22;6021;51.182;3.160;2023-07-16T14:36:24;21.50;1.00
11922;DHT22;6021;51.182;3.160;2023-07-16T14:38:54;21.50;1.00
11922;DHT22;6021;51.182;3.160;2023-07-16T14:41:23;21.40;1.00
11922;DHT22;6021;51.182;3.160;2023-07-16T14:43:54;21.40;1.00
11922;DHT22;6021;51.182;3.160;2023-07-16T14:46:22;21.20;1.00
11922;DHT22;6021;51.182;3.160;2023-07-16T14:49:00;21.10;1.00
11922;DHT22;6021;51.182;3.160;2023-07-16T14:51:26;21.20;1.00
11922;DHT22;6021;51.182;3.160;2023-07-16T14:53:55;21.10;1.00
11922;DHT22;6021;51.182;3.160;2023-07-16T14:56:24;21.10;1.00
11922;DHT22;6021;51.182;3.160;2023-07-16T14:58:53;21.10;1.00
11922;DHT22;6021;51.182;3.160;2023-07-16T15:01:22;21.00;1.00
11922;DHT22;6021;51.182;3.160;2023-07-16T15:03:50;20.90;1.00
11922;DHT22;6021;51.182;3.160;2023-07-16T15:06:18;21.00;1.00
11922;DHT22;6021;51.182;3.160;2023-07-16T15:08:47;21.10;1.00
11922;DHT22;6021;51.182;3.160;2023-07-16T15:11:15;21.20;1.00
11922;DHT22;6021;51.182;3.160;2023-07-16T15:13:44;21.20;1.00
11922;DHT22;6021;51.182;3.160;2023-07-16T15:16:12;21.20;1.00
11922;DHT22;6021;51.182;3.160;2023-07-16T15:18:41;21.30;1.00
11922;DHT22;6021;51.182;3.160;2023-07-16T15:21:11;21.50;1.00
11922;DHT22;6021;51.182;3.160;2023-07-16T15:23:58;21.50;1.00
11922;DHT22;6021;51.182;3.160;2023-07-16T15:26:27;21.40;1.00
11922;DHT22;6021;51.182;3.160;2023-07-16T15:28:55;21.60;1.00
11922;DHT22;6021;51.182;3.160;2023-07-16T15:31:24;21.60;1.00
11922;DHT22;6021;51.182;3.160;2023-07-16T15:33:54;21.60;1.00
11922;DHT22;6021;51.182;3.160;2023-07-16T15:36:25;21.60;1.00
11922;DHT22;6021;51.182;3.160;2023-07-16T15:38:56;21.60;1.00
11922;DHT22;6021;51.182;3.160;2023-07-16T15:41:25;21.60;1.00
11922;DHT22;6021;51.182;3.160;2023-07-16T15:43:55;21.60;1.00
11922;DHT22;6021;51.182;3.160;2023-07-16T15:46:23;21.50;1.00
11922;DHT22;6021;51.182;3.160;2023-07-16T15:48:52;21.40;1.00
11922;DHT22;6021;51.182;3.160;2023-07-16T15:51:20;21.40;1.00
11922;DHT22;6021;51.182;3.160;2023-07-16T15:53:52;21.40;1.00
11922;DHT22;6021;51.182;3.160;2023-07-16T15:56:22;21.50;1.00
11922;DHT22;6021;51.182;3.160;2023-07-16T15:58:50;21.50;1.00
11922;DHT22;6021;51.182;3.160;2023-07-16T16:01:19;21.50;1.00
11922;DHT22;6021;51.182;3.160;2023-07-16T16:03:47;21.40;1.00
11922;DHT22;6021;51.182;3.160;2023-07-16T16:06:16;21.40;1.00
11922;DHT22;6021;51.182;3.160;2023-07-16T16:08:44;21.40;1.00
11922;DHT22;6021;51.182;3.160;2023-07-16T16:11:13;21.30;1.00
11922;DHT22;6021;51.182;3.160;2023-07-16T16:13:47;21.20;1.00
11922;DHT22;6021;51.182;3.160;2023-07-16T16:16:11;21.10;1.00